sensor_id;sensor_type;location;lat;lon;timestamp;P1;durP1;ratioP1;P2;durP2;ratioP2
1446;SDS011;717;51.522;7.266;2024-03-02T00:02:19;1.10;;;1.00;;
1446;SDS011;717;51.522;7.266;2024-03-02T00:04:49;1.20;;;1.05;;
1446;SDS011;717;51.522;7.266;2024-03-02T00:07:20;1.40;;;1.30;;
1446;SDS011;717;51.522;7.266;2024-03-02T00:09:52;1.42;;;1.00;;
1446;SDS011;717;51.522;7.266;2024-03-02T00:12:23;1.33;;;1.20;;
1446;SDS011;717;51.522;7.266;2024-03-02T00:14:57;1.30;;;1.20;;
1446;SDS011;717;51.522;7.266;2024-03-02T00:17:29;2.20;;;1.10;;
1446;SDS011;717;51.522;7.266;2024-03-02T00:20:00;1.83;;;1.20;;
1446;SDS011;717;51.522;7.266;2024-03-02T00:22:31;1.27;;;1.17;;
1446;SDS011;717;51.522;7.266;2024-03-02T00:25:06;1.40;;;1.10;;
1446;SDS011;717;51.522;7.266;2024-03-02T00:27:38;1.52;;;1.30;;
1446;SDS011;717;51.522;7.266;2024-03-02T00:30:26;1.50;;;1.15;;
1446;SDS011;717;51.522;7.266;2024-03-02T00:33:13;1.75;;;1.17;;
1446;SDS011;717;51.522;7.266;2024-03-02T00:35:44;1.05;;;0.90;;
1446;SDS011;717;51.522;7.266;2024-03-02T00:38:15;1.48;;;1.10;;
1446;SDS011;717;51.522;7.266;2024-03-02T00:40:45;1.25;;;1.00;;
1446;SDS011;717;51.522;7.266;2024-03-02T00:46:18;1.35;;;1.23;;
1446;SDS011;717;51.522;7.266;2024-03-02T00:48:53;1.45;;;0.90;;
1446;SDS011;717;51.522;7.266;2024-03-02T00:51:26;2.40;;;1.02;;
1446;SDS011;717;51.522;7.266;2024-03-02T00:53:58;1.63;;;1.30;;
1446;SDS011;717;51.522;7.266;2024-03-02T00:56:31;0.88;;;0.85;;
1446;SDS011;717;51.522;7.266;2024-03-02T00:59:02;0.90;;;0.90;;
1446;SDS011;717;51.522;7.266;2024-03-02T01:01:35;1.15;;;0.80;;
1446;SDS011;717;51.522;7.266;2024-03-02T01:04:06;1.30;;;0.73;;
1446;SDS011;717;51.522;7.266;2024-03-02T01:06:36;0.98;;;0.95;;
1446;SDS011;717;51.522;7.266;2024-03-02T01:09:07;1.52;;;1.00;;
1446;SDS011;717;51.522;7.266;2024-03-02T01:11:39;1.90;;;1.25;;
1446;SDS011;717;51.522;7.266;2024-03-02T01:14:09;0.93;;;0.93;;
1446;SDS011;717;51.522;7.266;2024-03-02T01:16:42;2.38;;;1.13;;
1446;SDS011;717;51.522;7.266;2024-03-02T01:19:13;0.98;;;0.90;;
1446;SDS011;717;51.522;7.266;2024-03-02T01:21:43;0.77;;;0.70;;
1446;SDS011;717;51.522;7.266;2024-03-02T01:24:14;1.15;;;0.98;;
1446;SDS011;717;51.522;7.266;2024-03-02T01:26:44;0.98;;;0.88;;
1446;SDS011;717;51.522;7.266;2024-03-02T01:29:15;0.80;;;0.80;;
1446;SDS011;717;51.522;7.266;2024-03-02T01:31:49;0.80;;;0.70;;
1446;SDS011;717;51.522;7.266;2024-03-02T01:34:20;1.58;;;0.70;;
1446;SDS011;717;51.522;7.266;2024-03-02T01:36:51;0.82;;;0.80;;
1446;SDS011;717;51.522;7.266;2024-03-02T01:39:22;1.08;;;0.98;;
1446;SDS011;717;51.522;7.266;2024-03-02T01:41:52;1.15;;;0.80;;
1446;SDS011;717;51.522;7.266;2024-03-02T01:44:22;1.15;;;0.73;;
1446;SDS011;717;51.522;7.266;2024-03-02T01:46:56;0.77;;;0.60;;
1446;SDS011;717;51.522;7.266;2024-03-02T01:49:26;1.27;;;0.90;;
1446;SDS011;717;51.522;7.266;2024-03-02T01:51:57;1.40;;;0.90;;
1446;SDS011;717;51.522;7.266;2024-03-02T01:54:27;1.35;;;0.88;;
1446;SDS011;717;51.522;7.266;2024-03-02T01:56:57;0.80;;;0.70;;
1446;SDS011;717;51.522;7.266;2024-03-02T01:59:28;1.08;;;0.80;;
1446;SDS011;717;51.522;7.266;2024-03-02T02:02:01;0.60;;;0.60;;
1446;SDS011;717;51.522;7.266;2024-03-02T02:04:32;1.20;;;0.80;;
1446;SDS011;717;51.522;7.266;2024-03-02T02:07:02;1.83;;;0.80;;
1446;SDS011;717;51.522;7.266;2024-03-02T02:09:33;1.02;;;0.90;;
1446;SDS011;717;51.522;7.266;2024-03-02T02:12:04;1.60;;;0.90;;
1446;SDS011;717;51.522;7.266;2024-03-02T02:14:35;0.98;;;0.90;;
1446;SDS011;717;51.522;7.266;2024-03-02T02:17:09;1.95;;;0.90;;
1446;SDS011;717;51.522;7.266;2024-03-02T02:19:40;0.93;;;0.68;;
1446;SDS011;717;51.522;7.266;2024-03-02T02:22:13;1.17;;;0.77;;
1446;SDS011;717;51.522;7.266;2024-03-02T02:24:43;0.80;;;0.77;;
1446;SDS011;717;51.522;7.266;2024-03-02T02:27:14;1.00;;;0.75;;
1446;SDS011;717;51.522;7.266;2024-03-02T02:29:44;2.35;;;0.90;;
1446;SDS011;717;51.522;7.266;2024-03-02T02:32:14;1.33;;;0.80;;
1446;SDS011;717;51.522;7.266;2024-03-02T02:34:45;1.33;;;0.73;;
1446;SDS011;717;51.522;7.266;2024-03-02T02:37:18;0.80;;;0.80;;
1446;SDS011;717;51.522;7.266;2024-03-02T02:39:48;0.60;;;0.60;;
1446;SDS011;717;51.522;7.266;2024-03-02T02:42:22;2.03;;;0.80;;
1446;SDS011;717;51.522;7.266;2024-03-02T02:44:53;1.50;;;0.60;;
1446;SDS011;717;51.522;7.266;2024-03-02T02:47:23;1.05;;;0.95;;
1446;SDS011;717;51.522;7.266;2024-03-02T02:49:56;1.13;;;0.77;;
1446;SDS011;717;51.522;7.266;2024-03-02T02:52:33;1.63;;;1.00;;
1446;SDS011;717;51.522;7.266;2024-03-02T02:55:07;1.10;;;0.70;;
1446;SDS011;717;51.522;7.266;2024-03-02T02:57:39;1.67;;;0.50;;
1446;SDS011;717;51.522;7.266;2024-03-02T03:00:11;1.10;;;0.80;;
1446;SDS011;717;51.522;7.266;2024-03-02T03:02:46;0.93;;;0.60;;
1446;SDS011;717;51.522;7.266;2024-03-02T03:05:18;0.88;;;0.80;;
1446;SDS011;717;51.522;7.266;2024-03-02T03:07:51;1.10;;;0.75;;
1446;SDS011;717;51.522;7.266;2024-03-02T03:10:21;1.02;;;0.63;;
1446;SDS011;717;51.522;7.266;2024-03-02T03:12:53;1.08;;;0.88;;
1446;SDS011;717;51.522;7.266;2024-03-02T03:15:24;1.48;;;0.90;;
1446;SDS011;717;51.522;7.266;2024-03-02T03:17:55;0.90;;;0.68;;
1446;SDS011;717;51.522;7.266;2024-03-02T03:20:25;1.30;;;0.73;;
1446;SDS011;717;51.522;7.266;2024-03-02T03:22:59;1.13;;;0.70;;
1446;SDS011;717;51.522;7.266;2024-03-02T03:25:30;1.55;;;0.68;;
1446;SDS011;717;51.522;7.266;2024-03-02T03:28:01;1.13;;;0.52;;
1446;SDS011;717;51.522;7.266;2024-03-02T03:30:32;1.52;;;0.80;;
1446;SDS011;717;51.522;7.266;2024-03-02T03:33:02;1.17;;;0.70;;
1446;SDS011;717;51.522;7.266;2024-03-02T03:35:33;0.50;;;0.50;;
1446;SDS011;717;51.522;7.266;2024-03-02T03:38:06;0.90;;;0.68;;
1446;SDS011;717;51.522;7.266;2024-03-02T03:40:37;1.05;;;0.63;;
1446;SDS011;717;51.522;7.266;2024-03-02T03:43:07;2.38;;;0.70;;
1446;SDS011;717;51.522;7.266;2024-03-02T03:45:38;2.53;;;0.60;;
1446;SDS011;717;51.522;7.266;2024-03-02T03:48:08;0.50;;;0.40;;
1446;SDS011;717;51.522;7.266;2024-03-02T03:50:39;1.98;;;0.77;;
1446;SDS011;717;51.522;7.266;2024-03-02T03:53:11;0.80;;;0.60;;
1446;SDS011;717;51.522;7.266;2024-03-02T03:55:42;1.52;;;0.65;;
1446;SDS011;717;51.522;7.266;2024-03-02T03:58:13;1.25;;;0.70;;
1446;SDS011;717;51.522;7.266;2024-03-02T04:00:48;1.63;;;0.80;;
1446;SDS011;717;51.522;7.266;2024-03-02T04:03:18;0.95;;;0.77;;
1446;SDS011;717;51.522;7.266;2024-03-02T04:05:49;1.38;;;0.60;;
1446;SDS011;717;51.522;7.266;2024-03-02T04:08:22;2.40;;;0.60;;
1446;SDS011;717;51.522;7.266;2024-03-02T04:10:52;0.60;;;0.50;;
1446;SDS011;717;51.522;7.266;2024-03-02T04:13:23;0.63;;;0.63;;
1446;SDS011;717;51.522;7.266;2024-03-02T04:15:53;0.85;;;0.55;;
1446;SDS011;717;51.522;7.266;2024-03-02T04:18:24;0.60;;;0.60;;
1446;SDS011;717;51.522;7.266;2024-03-02T04:20:54;1.90;;;0.63;;
1446;SDS011;717;51.522;7.266;2024-03-02T04:23:28;0.60;;;0.57;;
1446;SDS011;717;51.522;7.266;2024-03-02T04:25:59;1.63;;;0.73;;
1446;SDS011;717;51.522;7.266;2024-03-02T04:28:29;1.00;;;0.88;;
1446;SDS011;717;51.522;7.266;2024-03-02T04:31:00;2.17;;;0.73;;
1446;SDS011;717;51.522;7.266;2024-03-02T04:33:31;1.17;;;0.40;;
1446;SDS011;717;51.522;7.266;2024-03-02T04:36:01;1.10;;;0.73;;
1446;SDS011;717;51.522;7.266;2024-03-02T04:38:34;0.75;;;0.60;;
1446;SDS011;717;51.522;7.266;2024-03-02T04:41:06;1.35;;;0.70;;
1446;SDS011;717;51.522;7.266;2024-03-02T04:43:36;0.65;;;0.65;;
1446;SDS011;717;51.522;7.266;2024-03-02T04:46:07;1.42;;;0.60;;
1446;SDS011;717;51.522;7.266;2024-03-02T04:48:37;1.67;;;0.90;;
1446;SDS011;717;51.522;7.266;2024-03-02T04:51:08;0.85;;;0.68;;
1446;SDS011;717;51.522;7.266;2024-03-02T04:53:42;0.75;;;0.70;;
1446;SDS011;717;51.522;7.266;2024-03-02T04:56:13;0.63;;;0.60;;
1446;SDS011;717;51.522;7.266;2024-03-02T04:59:06;1.15;;;0.60;;
1446;SDS011;717;51.522;7.266;2024-03-02T05:01:36;1.15;;;0.70;;
1446;SDS011;717;51.522;7.266;2024-03-02T05:04:07;1.52;;;0.80;;
1446;SDS011;717;51.522;7.266;2024-03-02T05:06:38;1.63;;;0.80;;
1446;SDS011;717;51.522;7.266;2024-03-02T05:09:12;1.42;;;0.90;;
1446;SDS011;717;51.522;7.266;2024-03-02T05:11:43;1.40;;;0.80;;
1446;SDS011;717;51.522;7.266;2024-03-02T05:14:30;0.80;;;0.70;;
1446;SDS011;717;51.522;7.266;2024-03-02T05:17:00;0.80;;;0.70;;
1446;SDS011;717;51.522;7.266;2024-03-02T05:19:30;1.42;;;0.70;;
1446;SDS011;717;51.522;7.266;2024-03-02T05:22:01;2.42;;;0.80;;
1446;SDS011;717;51.522;7.266;2024-03-02T05:24:35;1.45;;;0.80;;
1446;SDS011;717;51.522;7.266;2024-03-02T05:27:05;1.80;;;0.77;;
1446;SDS011;717;51.522;7.266;2024-03-02T05:29:36;1.10;;;0.70;;
1446;SDS011;717;51.522;7.266;2024-03-02T05:32:06;1.23;;;0.80;;
1446;SDS011;717;51.522;7.266;2024-03-02T05:34:37;1.17;;;0.82;;
1446;SDS011;717;51.522;7.266;2024-03-02T05:37:07;1.40;;;0.85;;
1446;SDS011;717;51.522;7.266;2024-03-02T05:39:41;0.88;;;0.60;;
1446;SDS011;717;51.522;7.266;2024-03-02T05:42:12;1.20;;;0.90;;
1446;SDS011;717;51.522;7.266;2024-03-02T05:44:43;1.38;;;0.80;;
1446;SDS011;717;51.522;7.266;2024-03-02T05:47:14;1.02;;;0.90;;
1446;SDS011;717;51.522;7.266;2024-03-02T05:49:45;2.85;;;1.00;;
1446;SDS011;717;51.522;7.266;2024-03-02T05:52:15;1.80;;;0.93;;
1446;SDS011;717;51.522;7.266;2024-03-02T05:54:48;1.30;;;0.80;;
1446;SDS011;717;51.522;7.266;2024-03-02T05:57:18;1.25;;;0.80;;
1446;SDS011;717;51.522;7.266;2024-03-02T06:00:12;1.70;;;1.00;;
1446;SDS011;717;51.522;7.266;2024-03-02T06:02:44;2.30;;;0.90;;
1446;SDS011;717;51.522;7.266;2024-03-02T06:05:15;1.38;;;1.15;;
1446;SDS011;717;51.522;7.266;2024-03-02T06:07:45;1.42;;;1.10;;
1446;SDS011;717;51.522;7.266;2024-03-02T06:10:18;1.27;;;1.10;;
1446;SDS011;717;51.522;7.266;2024-03-02T06:12:49;1.65;;;1.30;;
1446;SDS011;717;51.522;7.266;2024-03-02T06:15:19;2.42;;;1.23;;
1446;SDS011;717;51.522;7.266;2024-03-02T06:17:50;3.25;;;1.25;;
1446;SDS011;717;51.522;7.266;2024-03-02T06:20:20;2.20;;;1.30;;
1446;SDS011;717;51.522;7.266;2024-03-02T06:22:51;1.40;;;1.27;;
1446;SDS011;717;51.522;7.266;2024-03-02T06:25:25;1.40;;;1.30;;
1446;SDS011;717;51.522;7.266;2024-03-02T06:27:55;2.13;;;1.50;;
1446;SDS011;717;51.522;7.266;2024-03-02T06:30:26;1.63;;;1.52;;
1446;SDS011;717;51.522;7.266;2024-03-02T06:32:57;2.42;;;1.65;;
1446;SDS011;717;51.522;7.266;2024-03-02T06:35:27;1.50;;;1.40;;
1446;SDS011;717;51.522;7.266;2024-03-02T06:37:57;2.08;;;1.80;;
1446;SDS011;717;51.522;7.266;2024-03-02T06:40:30;1.73;;;1.42;;
1446;SDS011;717;51.522;7.266;2024-03-02T06:43:01;1.85;;;1.33;;
1446;SDS011;717;51.522;7.266;2024-03-02T06:45:31;1.70;;;1.50;;
1446;SDS011;717;51.522;7.266;2024-03-02T06:48:02;2.45;;;1.50;;
1446;SDS011;717;51.522;7.266;2024-03-02T06:50:33;2.45;;;1.60;;
1446;SDS011;717;51.522;7.266;2024-03-02T06:53:03;1.88;;;1.50;;
1446;SDS011;717;51.522;7.266;2024-03-02T06:55:36;2.13;;;1.77;;
1446;SDS011;717;51.522;7.266;2024-03-02T06:58:06;1.95;;;1.27;;
1446;SDS011;717;51.522;7.266;2024-03-02T07:00:37;1.88;;;1.25;;
1446;SDS011;717;51.522;7.266;2024-03-02T07:03:08;1.40;;;1.30;;
1446;SDS011;717;51.522;7.266;2024-03-02T07:05:39;3.22;;;1.50;;
1446;SDS011;717;51.522;7.266;2024-03-02T07:08:09;2.10;;;1.48;;
1446;SDS011;717;51.522;7.266;2024-03-02T07:10:42;2.47;;;1.38;;
1446;SDS011;717;51.522;7.266;2024-03-02T07:13:13;1.60;;;1.42;;
1446;SDS011;717;51.522;7.266;2024-03-02T07:15:44;2.15;;;1.50;;
1446;SDS011;717;51.522;7.266;2024-03-02T07:18:32;2.38;;;1.58;;
1446;SDS011;717;51.522;7.266;2024-03-02T07:21:07;1.58;;;1.48;;
1446;SDS011;717;51.522;7.266;2024-03-02T07:23:37;2.72;;;1.77;;
1446;SDS011;717;51.522;7.266;2024-03-02T07:26:10;3.55;;;1.65;;
1446;SDS011;717;51.522;7.266;2024-03-02T07:28:44;1.67;;;1.38;;
1446;SDS011;717;51.522;7.266;2024-03-02T07:31:15;2.38;;;1.60;;
1446;SDS011;717;51.522;7.266;2024-03-02T07:33:45;2.47;;;1.60;;
1446;SDS011;717;51.522;7.266;2024-03-02T07:36:15;2.45;;;2.03;;
1446;SDS011;717;51.522;7.266;2024-03-02T07:38:46;2.67;;;1.55;;
1446;SDS011;717;51.522;7.266;2024-03-02T07:41:19;3.03;;;1.45;;
1446;SDS011;717;51.522;7.266;2024-03-02T07:43:49;3.15;;;1.90;;
1446;SDS011;717;51.522;7.266;2024-03-02T07:46:19;1.95;;;1.73;;
1446;SDS011;717;51.522;7.266;2024-03-02T07:48:49;1.73;;;1.63;;
1446;SDS011;717;51.522;7.266;2024-03-02T07:51:20;2.45;;;1.80;;
1446;SDS011;717;51.522;7.266;2024-03-02T07:53:50;1.98;;;1.52;;
1446;SDS011;717;51.522;7.266;2024-03-02T07:56:23;2.92;;;1.67;;
1446;SDS011;717;51.522;7.266;2024-03-02T07:58:53;2.30;;;1.90;;
1446;SDS011;717;51.522;7.266;2024-03-02T08:01:23;1.60;;;1.50;;
1446;SDS011;717;51.522;7.266;2024-03-02T08:03:54;2.67;;;2.00;;
1446;SDS011;717;51.522;7.266;2024-03-02T08:06:25;2.35;;;1.50;;
1446;SDS011;717;51.522;7.266;2024-03-02T08:08:56;2.05;;;1.50;;
1446;SDS011;717;51.522;7.266;2024-03-02T08:11:29;1.75;;;1.65;;
1446;SDS011;717;51.522;7.266;2024-03-02T08:13:59;3.72;;;1.83;;
1446;SDS011;717;51.522;7.266;2024-03-02T08:16:29;2.30;;;1.58;;
1446;SDS011;717;51.522;7.266;2024-03-02T08:19:00;1.30;;;1.20;;
1446;SDS011;717;51.522;7.266;2024-03-02T08:21:30;1.40;;;1.20;;
1446;SDS011;717;51.522;7.266;2024-03-02T08:24:02;1.83;;;1.40;;
1446;SDS011;717;51.522;7.266;2024-03-02T08:26:35;3.03;;;1.15;;
1446;SDS011;717;51.522;7.266;2024-03-02T08:29:05;2.88;;;1.30;;
1446;SDS011;717;51.522;7.266;2024-03-02T08:31:35;2.20;;;1.50;;
1446;SDS011;717;51.522;7.266;2024-03-02T08:34:07;1.30;;;1.05;;
1446;SDS011;717;51.522;7.266;2024-03-02T08:36:38;1.17;;;1.08;;
1446;SDS011;717;51.522;7.266;2024-03-02T08:39:08;2.30;;;1.20;;
1446;SDS011;717;51.522;7.266;2024-03-02T08:41:45;1.27;;;1.00;;
1446;SDS011;717;51.522;7.266;2024-03-02T08:44:16;0.98;;;0.80;;
1446;SDS011;717;51.522;7.266;2024-03-02T08:46:46;2.20;;;1.10;;
1446;SDS011;717;51.522;7.266;2024-03-02T08:49:16;2.17;;;1.10;;
1446;SDS011;717;51.522;7.266;2024-03-02T08:51:46;1.17;;;1.08;;
1446;SDS011;717;51.522;7.266;2024-03-02T08:54:21;1.83;;;0.93;;
1446;SDS011;717;51.522;7.266;2024-03-02T08:56:54;1.27;;;1.15;;
1446;SDS011;717;51.522;7.266;2024-03-02T08:59:24;1.15;;;1.05;;
1446;SDS011;717;51.522;7.266;2024-03-02T09:01:54;1.17;;;1.02;;
1446;SDS011;717;51.522;7.266;2024-03-02T09:04:24;0.85;;;0.80;;
1446;SDS011;717;51.522;7.266;2024-03-02T09:06:59;1.10;;;0.93;;
1446;SDS011;717;51.522;7.266;2024-03-02T09:09:29;1.15;;;0.75;;
1446;SDS011;717;51.522;7.266;2024-03-02T09:12:02;2.65;;;0.93;;
1446;SDS011;717;51.522;7.266;2024-03-02T09:14:32;1.23;;;1.13;;
1446;SDS011;717;51.522;7.266;2024-03-02T09:17:03;1.20;;;0.85;;
1446;SDS011;717;51.522;7.266;2024-03-02T09:19:33;4.85;;;1.10;;
1446;SDS011;717;51.522;7.266;2024-03-02T09:22:03;1.80;;;0.90;;
1446;SDS011;717;51.522;7.266;2024-03-02T09:24:34;0.80;;;0.80;;
1446;SDS011;717;51.522;7.266;2024-03-02T09:27:06;1.02;;;0.80;;
1446;SDS011;717;51.522;7.266;2024-03-02T09:29:36;1.17;;;0.75;;
1446;SDS011;717;51.522;7.266;2024-03-02T09:32:12;1.65;;;0.95;;
1446;SDS011;717;51.522;7.266;2024-03-02T09:34:42;1.00;;;0.90;;
1446;SDS011;717;51.522;7.266;2024-03-02T09:37:14;1.00;;;0.90;;
1446;SDS011;717;51.522;7.266;2024-03-02T09:39:44;1.55;;;0.98;;
1446;SDS011;717;51.522;7.266;2024-03-02T09:42:17;2.13;;;1.08;;
1446;SDS011;717;51.522;7.266;2024-03-02T09:44:50;1.08;;;0.95;;
1446;SDS011;717;51.522;7.266;2024-03-02T09:47:20;1.02;;;0.80;;
1446;SDS011;717;51.522;7.266;2024-03-02T09:49:50;2.45;;;0.90;;
1446;SDS011;717;51.522;7.266;2024-03-02T09:52:20;1.10;;;0.77;;
1446;SDS011;717;51.522;7.266;2024-03-02T09:54:51;1.02;;;0.80;;
1446;SDS011;717;51.522;7.266;2024-03-02T09:57:24;1.85;;;0.93;;
1446;SDS011;717;51.522;7.266;2024-03-02T09:59:54;1.30;;;0.75;;
1446;SDS011;717;51.522;7.266;2024-03-02T10:02:24;1.48;;;0.68;;
1446;SDS011;717;51.522;7.266;2024-03-02T10:04:54;1.30;;;0.60;;
1446;SDS011;717;51.522;7.266;2024-03-02T10:07:24;1.08;;;0.65;;
1446;SDS011;717;51.522;7.266;2024-03-02T10:09:54;0.93;;;0.50;;
1446;SDS011;717;51.522;7.266;2024-03-02T10:12:26;1.17;;;0.68;;
1446;SDS011;717;51.522;7.266;2024-03-02T10:15:02;1.40;;;0.60;;
1446;SDS011;717;51.522;7.266;2024-03-02T10:17:34;2.17;;;0.43;;
1446;SDS011;717;51.522;7.266;2024-03-02T10:22:52;0.90;;;0.50;;
1446;SDS011;717;51.522;7.266;2024-03-02T10:25:29;2.70;;;0.68;;
1446;SDS011;717;51.522;7.266;2024-03-02T10:28:06;1.23;;;0.63;;
1446;SDS011;717;51.522;7.266;2024-03-02T10:30:36;1.75;;;1.15;;
1446;SDS011;717;51.522;7.266;2024-03-02T10:33:06;1.92;;;0.95;;
1446;SDS011;717;51.522;7.266;2024-03-02T10:35:37;1.58;;;1.00;;
1446;SDS011;717;51.522;7.266;2024-03-02T10:38:08;0.70;;;0.50;;
1446;SDS011;717;51.522;7.266;2024-03-02T10:40:40;1.30;;;0.60;;
1446;SDS011;717;51.522;7.266;2024-03-02T10:43:18;1.40;;;0.70;;
1446;SDS011;717;51.522;7.266;2024-03-02T10:45:49;1.27;;;0.60;;
1446;SDS011;717;51.522;7.266;2024-03-02T10:48:20;2.15;;;0.80;;
1446;SDS011;717;51.522;7.266;2024-03-02T10:50:50;0.47;;;0.45;;
1446;SDS011;717;51.522;7.266;2024-03-02T10:53:20;1.10;;;0.50;;
1446;SDS011;717;51.522;7.266;2024-03-02T10:55:50;0.63;;;0.60;;
1446;SDS011;717;51.522;7.266;2024-03-02T10:58:32;0.95;;;0.65;;
1446;SDS011;717;51.522;7.266;2024-03-02T11:01:03;0.98;;;0.60;;
1446;SDS011;717;51.522;7.266;2024-03-02T11:03:35;1.88;;;0.70;;
1446;SDS011;717;51.522;7.266;2024-03-02T11:06:07;0.77;;;0.60;;
1446;SDS011;717;51.522;7.266;2024-03-02T11:08:40;0.88;;;0.55;;
1446;SDS011;717;51.522;7.266;2024-03-02T11:11:13;0.88;;;0.60;;
1446;SDS011;717;51.522;7.266;2024-03-02T11:13:50;0.80;;;0.47;;
1446;SDS011;717;51.522;7.266;2024-03-02T11:16:27;1.80;;;0.90;;
1446;SDS011;717;51.522;7.266;2024-03-02T11:19:04;0.77;;;0.60;;
1446;SDS011;717;51.522;7.266;2024-03-02T11:21:38;2.80;;;0.52;;
1446;SDS011;717;51.522;7.266;2024-03-02T11:27:04;1.30;;;0.80;;
1446;SDS011;717;51.522;7.266;2024-03-02T11:29:46;1.35;;;0.60;;
1446;SDS011;717;51.522;7.266;2024-03-02T11:32:18;1.13;;;0.70;;
1446;SDS011;717;51.522;7.266;2024-03-02T11:34:51;0.95;;;0.55;;
1446;SDS011;717;51.522;7.266;2024-03-02T11:37:21;0.82;;;0.47;;
1446;SDS011;717;51.522;7.266;2024-03-02T11:39:54;0.90;;;0.60;;
1446;SDS011;717;51.522;7.266;2024-03-02T11:42:24;1.42;;;0.50;;
1446;SDS011;717;51.522;7.266;2024-03-02T11:44:56;0.73;;;0.50;;
1446;SDS011;717;51.522;7.266;2024-03-02T11:47:26;0.60;;;0.40;;
1446;SDS011;717;51.522;7.266;2024-03-02T11:50:05;0.73;;;0.40;;
1446;SDS011;717;51.522;7.266;2024-03-02T11:52:36;1.40;;;0.55;;
1446;SDS011;717;51.522;7.266;2024-03-02T11:55:07;0.98;;;0.60;;
1446;SDS011;717;51.522;7.266;2024-03-02T11:57:38;1.02;;;0.50;;
1446;SDS011;717;51.522;7.266;2024-03-02T12:00:19;0.85;;;0.50;;
1446;SDS011;717;51.522;7.266;2024-03-02T12:02:59;0.50;;;0.50;;
1446;SDS011;717;51.522;7.266;2024-03-02T12:05:29;2.08;;;0.52;;
1446;SDS011;717;51.522;7.266;2024-03-02T12:08:00;0.63;;;0.50;;
1446;SDS011;717;51.522;7.266;2024-03-02T12:10:33;0.70;;;0.45;;
1446;SDS011;717;51.522;7.266;2024-03-02T12:13:04;1.05;;;0.40;;
1446;SDS011;717;51.522;7.266;2024-03-02T12:15:40;1.73;;;0.50;;
1446;SDS011;717;51.522;7.266;2024-03-02T12:18:11;1.35;;;0.55;;
1446;SDS011;717;51.522;7.266;2024-03-02T12:20:40;1.75;;;0.50;;
1446;SDS011;717;51.522;7.266;2024-03-02T12:23:10;0.93;;;0.70;;
1446;SDS011;717;51.522;7.266;2024-03-02T12:25:42;1.42;;;0.73;;
1446;SDS011;717;51.522;7.266;2024-03-02T12:28:12;1.20;;;0.40;;
1446;SDS011;717;51.522;7.266;2024-03-02T12:30:45;0.52;;;0.38;;
1446;SDS011;717;51.522;7.266;2024-03-02T12:33:15;0.60;;;0.45;;
1446;SDS011;717;51.522;7.266;2024-03-02T12:35:46;0.82;;;0.45;;
1446;SDS011;717;51.522;7.266;2024-03-02T12:38:17;0.90;;;0.43;;
1446;SDS011;717;51.522;7.266;2024-03-02T12:40:48;0.50;;;0.35;;
1446;SDS011;717;51.522;7.266;2024-03-02T12:43:18;1.02;;;0.40;;
1446;SDS011;717;51.522;7.266;2024-03-02T12:45:53;0.68;;;0.40;;
1446;SDS011;717;51.522;7.266;2024-03-02T12:48:24;1.17;;;0.70;;
1446;SDS011;717;51.522;7.266;2024-03-02T12:50:54;0.63;;;0.40;;
1446;SDS011;717;51.522;7.266;2024-03-02T12:53:24;1.98;;;0.63;;
1446;SDS011;717;51.522;7.266;2024-03-02T12:55:54;1.08;;;0.70;;
1446;SDS011;717;51.522;7.266;2024-03-02T12:58:25;0.55;;;0.50;;
1446;SDS011;717;51.522;7.266;2024-03-02T13:01:08;0.45;;;0.45;;
1446;SDS011;717;51.522;7.266;2024-03-02T13:03:41;0.63;;;0.30;;
1446;SDS011;717;51.522;7.266;2024-03-02T13:06:11;1.27;;;0.57;;
1446;SDS011;717;51.522;7.266;2024-03-02T13:08:42;1.25;;;0.40;;
1446;SDS011;717;51.522;7.266;2024-03-02T13:11:12;0.68;;;0.30;;
1446;SDS011;717;51.522;7.266;2024-03-02T13:13:42;1.10;;;0.50;;
1446;SDS011;717;51.522;7.266;2024-03-02T13:16:15;0.30;;;0.30;;
1446;SDS011;717;51.522;7.266;2024-03-02T13:18:55;0.38;;;0.38;;
1446;SDS011;717;51.522;7.266;2024-03-02T13:21:25;0.35;;;0.35;;
1446;SDS011;717;51.522;7.266;2024-03-02T13:23:55;0.75;;;0.30;;
1446;SDS011;717;51.522;7.266;2024-03-02T13:26:25;0.75;;;0.50;;
1446;SDS011;717;51.522;7.266;2024-03-02T13:28:56;0.55;;;0.40;;
1446;SDS011;717;51.522;7.266;2024-03-02T13:31:28;0.93;;;0.40;;
1446;SDS011;717;51.522;7.266;2024-03-02T13:33:58;0.20;;;0.20;;
1446;SDS011;717;51.522;7.266;2024-03-02T13:36:28;0.47;;;0.40;;
1446;SDS011;717;51.522;7.266;2024-03-02T13:38:58;0.40;;;0.40;;
1446;SDS011;717;51.522;7.266;2024-03-02T13:41:29;0.28;;;0.10;;
1446;SDS011;717;51.522;7.266;2024-03-02T13:43:59;0.90;;;0.40;;
1446;SDS011;717;51.522;7.266;2024-03-02T13:46:32;0.10;;;0.10;;
1446;SDS011;717;51.522;7.266;2024-03-02T13:49:02;0.20;;;0.20;;
1446;SDS011;717;51.522;7.266;2024-03-02T13:51:32;0.50;;;0.40;;
1446;SDS011;717;51.522;7.266;2024-03-02T13:54:02;0.20;;;0.20;;
1446;SDS011;717;51.522;7.266;2024-03-02T13:56:32;1.05;;;0.20;;
1446;SDS011;717;51.522;7.266;2024-03-02T13:59:05;0.90;;;0.25;;
1446;SDS011;717;51.522;7.266;2024-03-02T14:01:38;0.38;;;0.20;;
1446;SDS011;717;51.522;7.266;2024-03-02T14:04:08;1.08;;;0.22;;
1446;SDS011;717;51.522;7.266;2024-03-02T14:06:39;0.38;;;0.30;;
1446;SDS011;717;51.522;7.266;2024-03-02T14:09:10;0.40;;;0.22;;
1446;SDS011;717;51.522;7.266;2024-03-02T14:11:40;1.25;;;0.25;;
1446;SDS011;717;51.522;7.266;2024-03-02T14:14:09;0.20;;;0.20;;
1446;SDS011;717;51.522;7.266;2024-03-02T14:16:42;0.93;;;0.20;;
1446;SDS011;717;51.522;7.266;2024-03-02T14:19:12;0.30;;;0.22;;
1446;SDS011;717;51.522;7.266;2024-03-02T14:21:43;0.20;;;0.20;;
1446;SDS011;717;51.522;7.266;2024-03-02T14:24:14;0.40;;;0.20;;
1446;SDS011;717;51.522;7.266;2024-03-02T14:26:43;0.20;;;0.20;;
1446;SDS011;717;51.522;7.266;2024-03-02T14:29:14;0.55;;;0.40;;
1446;SDS011;717;51.522;7.266;2024-03-02T14:31:47;1.30;;;0.55;;
1446;SDS011;717;51.522;7.266;2024-03-02T14:34:17;0.57;;;0.50;;
1446;SDS011;717;51.522;7.266;2024-03-02T14:36:47;1.17;;;0.52;;
1446;SDS011;717;51.522;7.266;2024-03-02T14:39:17;2.38;;;0.40;;
1446;SDS011;717;51.522;7.266;2024-03-02T14:41:47;0.47;;;0.30;;
1446;SDS011;717;51.522;7.266;2024-03-02T14:44:18;0.82;;;0.40;;
1446;SDS011;717;51.522;7.266;2024-03-02T14:46:50;0.65;;;0.30;;
1446;SDS011;717;51.522;7.266;2024-03-02T14:49:20;0.40;;;0.40;;
1446;SDS011;717;51.522;7.266;2024-03-02T14:51:50;0.70;;;0.40;;
1446;SDS011;717;51.522;7.266;2024-03-02T14:54:21;0.85;;;0.50;;
1446;SDS011;717;51.522;7.266;2024-03-02T14:56:51;0.60;;;0.52;;
1446;SDS011;717;51.522;7.266;2024-03-02T14:59:21;3.25;;;0.60;;
1446;SDS011;717;51.522;7.266;2024-03-02T15:01:53;0.60;;;0.60;;
1446;SDS011;717;51.522;7.266;2024-03-02T15:04:23;2.35;;;0.50;;
1446;SDS011;717;51.522;7.266;2024-03-02T15:06:53;1.13;;;0.60;;
1446;SDS011;717;51.522;7.266;2024-03-02T15:09:23;0.50;;;0.50;;
1446;SDS011;717;51.522;7.266;2024-03-02T15:11:54;0.40;;;0.40;;
1446;SDS011;717;51.522;7.266;2024-03-02T15:14:24;0.45;;;0.40;;
1446;SDS011;717;51.522;7.266;2024-03-02T15:16:56;0.85;;;0.45;;
1446;SDS011;717;51.522;7.266;2024-03-02T15:19:27;1.35;;;0.55;;
1446;SDS011;717;51.522;7.266;2024-03-02T15:21:57;0.75;;;0.50;;
1446;SDS011;717;51.522;7.266;2024-03-02T15:24:27;0.60;;;0.43;;
1446;SDS011;717;51.522;7.266;2024-03-02T15:26:57;0.73;;;0.50;;
1446;SDS011;717;51.522;7.266;2024-03-02T15:29:30;2.15;;;0.60;;
1446;SDS011;717;51.522;7.266;2024-03-02T15:32:03;1.13;;;0.50;;
1446;SDS011;717;51.522;7.266;2024-03-02T15:34:34;0.70;;;0.70;;
1446;SDS011;717;51.522;7.266;2024-03-02T15:37:04;0.63;;;0.50;;
1446;SDS011;717;51.522;7.266;2024-03-02T15:39:35;0.52;;;0.40;;
1446;SDS011;717;51.522;7.266;2024-03-02T15:42:05;1.23;;;0.73;;
1446;SDS011;717;51.522;7.266;2024-03-02T15:44:35;1.42;;;0.80;;
1446;SDS011;717;51.522;7.266;2024-03-02T15:47:11;1.33;;;0.80;;
1446;SDS011;717;51.522;7.266;2024-03-02T15:49:41;0.73;;;0.60;;
1446;SDS011;717;51.522;7.266;2024-03-02T15:52:11;0.90;;;0.52;;
1446;SDS011;717;51.522;7.266;2024-03-02T15:54:44;0.80;;;0.70;;
1446;SDS011;717;51.522;7.266;2024-03-02T15:57:15;0.95;;;0.85;;
1446;SDS011;717;51.522;7.266;2024-03-02T15:59:45;0.77;;;0.70;;
1446;SDS011;717;51.522;7.266;2024-03-02T16:02:19;0.88;;;0.77;;
1446;SDS011;717;51.522;7.266;2024-03-02T16:04:49;0.82;;;0.70;;
1446;SDS011;717;51.522;7.266;2024-03-02T16:07:19;1.20;;;0.75;;